KMOX

Morris Municipal - Charlie Schmidt Field Airport

Morris, Minnesota, USA
METAR KMOX 122055Z AUTO 13008KT 1 1/4SM BR OVC002 M03/M03 A2970 RMK AO2
Observed Flight Rules
Dec-12 @ 20:55 UTC (13 minutes ago) Instrument Flight Rules
Wind Visibility Clouds Conditions
130° at 8 knots 1 1/4 miles
  • Overcast at 200' AGL
  • Mist
Temperatures Readings
Current -3°C / 27°F
Dewpoint -3°C / 27°F
Humidity 100%
Altimeter 29.7" Hg
Pressure 1006 hPa
Elevation 344
METAR KMOX 122055Z AUTO 13008KT 1 1/4SM BR OVC002 M03/M03 A2970 RMK AO2
Observed Flight Rules
Dec-12 @ 20:55 UTC
(13 minutes ago)
LIFR
Wind Visibility
130° at 8 knots 1 1/4 miles
Clouds
  • Overcast at 200' AGL
Conditions
  • Mist
Temperature Dewpoint
-3°C / 27°F -3°C / 27°F
Humidity Altimeter Pressure
100% 29.7" Hg 1006 hPa